Time;durP1;ratioP1;P1;durP2;ratioP2;P2;SDS_P1;SDS_P2;PMS_P1;PMS_P2;Temp;Humidity;BMP_temperature;BMP_pressure;BME280_temperature;BME280_humidity;BME280_pressure;Samples;Min_cycle;Max_cycle;Signal;HPM_P1;HPM_P2
2021/10/08 00:00:42;;;;;;;1.40;1.40;;;11.00;98.00;;;;;;5051572;28;20486;-67
2021/10/08 00:03:09;;;;;;;1.33;1.20;;;11.20;98.00;;;;;;5051796;28;20488;-67
2021/10/08 00:05:38;;;;;;;1.50;1.20;;;11.00;98.00;;;;;;5050425;28;20499;-69
2021/10/08 00:08:05;;;;;;;2.17;1.40;;;10.90;98.00;;;;;;5051632;28;20505;-68
2021/10/08 00:10:33;;;;;;;2.50;1.30;;;10.80;98.00;;;;;;5051526;28;20459;-68
2021/10/08 00:13:01;;;;;;;1.67;1.43;;;10.70;98.00;;;;;;5051706;28;20482;-68
2021/10/08 00:15:28;;;;;;;1.30;1.20;;;10.60;98.00;;;;;;5051576;28;20467;-68
2021/10/08 00:17:55;;;;;;;1.53;1.10;;;10.30;98.00;;;;;;5051571;28;20833;-68
2021/10/08 00:20:22;;;;;;;1.60;1.27;;;10.20;98.00;;;;;;5051618;28;21022;-68
2021/10/08 00:22:50;;;;;;;1.20;1.10;;;10.00;98.00;;;;;;5051780;28;20450;-67
2021/10/08 00:25:17;;;;;;;1.20;1.03;;;9.80;98.00;;;;;;5051284;28;20535;-68
2021/10/08 00:27:44;;;;;;;1.80;1.50;;;9.80;98.00;;;;;;5051593;28;20501;-68
2021/10/08 00:30:11;;;;;;;1.40;1.30;;;9.70;98.00;;;;;;5050558;28;20500;-67
2021/10/08 00:32:38;;;;;;;1.50;1.20;;;9.60;98.00;;;;;;5051533;28;20461;-67
2021/10/08 00:35:06;;;;;;;1.20;1.00;;;9.50;98.00;;;;;;5051548;28;20496;-67
2021/10/08 00:37:33;;;;;;;1.47;1.43;;;9.50;98.00;;;;;;5050412;28;20458;-67
2021/10/08 00:40:02;;;;;;;1.73;1.13;;;9.50;98.00;;;;;;5051391;28;20883;-68
2021/10/08 00:42:30;;;;;;;1.20;1.00;;;9.50;98.00;;;;;;5050209;28;20504;-68
2021/10/08 00:44:57;;;;;;;1.20;1.00;;;9.40;98.00;;;;;;5051456;28;20469;-67
2021/10/08 00:47:24;;;;;;;2.57;1.77;;;9.30;98.00;;;;;;5051688;28;20877;-68
2021/10/08 00:49:51;;;;;;;1.20;1.03;;;9.30;98.00;;;;;;5055291;28;20488;-68
2021/10/08 00:52:19;;;;;;;1.20;1.10;;;9.20;98.00;;;;;;5055303;28;20459;-67
2021/10/08 00:54:46;;;;;;;1.70;1.30;;;9.10;98.00;;;;;;5055011;28;20466;-67
2021/10/08 00:57:14;;;;;;;1.20;1.10;;;9.00;98.00;;;;;;5055121;28;20482;-68
2021/10/08 00:59:42;;;;;;;3.43;1.50;;;9.00;98.00;;;;;;5054827;28;20559;-68
2021/10/08 01:02:09;;;;;;;2.13;1.00;;;9.10;98.00;;;;;;5054971;28;20497;-68
2021/10/08 01:04:36;;;;;;;1.30;1.20;;;9.00;98.00;;;;;;5053609;28;20490;-67
2021/10/08 01:07:03;;;;;;;1.20;1.00;;;8.90;98.00;;;;;;5055006;28;20489;-68
2021/10/08 01:09:30;;;;;;;1.60;1.40;;;9.00;98.00;;;;;;5054793;28;20457;-67
2021/10/08 01:12:01;;;;;;;1.20;0.97;;;9.20;98.00;;;;;;5054904;28;20489;-67
2021/10/08 01:14:29;;;;;;;1.23;1.03;;;9.10;98.00;;;;;;5053495;28;20458;-67
2021/10/08 01:16:56;;;;;;;1.27;1.20;;;9.00;98.00;;;;;;5054886;28;20484;-68
2021/10/08 01:19:23;;;;;;;1.40;1.03;;;8.90;98.00;;;;;;5053253;28;20493;-68
2021/10/08 01:21:54;;;;;;;2.43;1.20;;;8.80;98.00;;;;;;5054495;28;20825;-67
2021/10/08 01:24:21;;;;;;;1.50;1.20;;;8.70;98.00;;;;;;5054657;28;20464;-67
2021/10/08 01:26:48;;;;;;;2.47;1.40;;;8.70;98.00;;;;;;5053363;28;20472;-68
2021/10/08 01:29:15;;;;;;;1.30;1.20;;;8.70;98.00;;;;;;5054419;28;20514;-67
2021/10/08 01:31:43;;;;;;;1.20;1.03;;;8.70;98.00;;;;;;5054492;28;20538;-67
2021/10/08 01:34:13;;;;;;;1.67;1.10;;;8.70;98.00;;;;;;5053215;28;20474;-68
2021/10/08 01:36:40;;;;;;;1.20;1.10;;;8.80;98.00;;;;;;5054447;28;20518;-68
2021/10/08 01:39:09;;;;;;;1.30;1.20;;;8.70;98.00;;;;;;5054431;28;20939;-67
2021/10/08 01:41:36;;;;;;;1.20;1.10;;;8.70;98.00;;;;;;5053189;28;20891;-67
2021/10/08 01:44:03;;;;;;;1.20;1.00;;;8.70;98.00;;;;;;5054421;28;20489;-67
2021/10/08 01:46:30;;;;;;;1.40;1.00;;;8.60;98.00;;;;;;5054279;28;20491;-68
2021/10/08 01:48:57;;;;;;;1.30;1.10;;;8.50;98.00;;;;;;5054314;28;20453;-68
2021/10/08 01:51:24;;;;;;;1.20;1.10;;;8.50;98.00;;;;;;5054442;28;20495;-68
2021/10/08 01:53:51;;;;;;;1.40;1.20;;;8.40;98.00;;;;;;5052872;28;20488;-68
2021/10/08 01:56:20;;;;;;;1.30;1.03;;;8.40;98.00;;;;;;5054248;28;20455;-67
2021/10/08 01:58:47;;;;;;;1.40;1.00;;;8.40;98.00;;;;;;5053859;28;20531;-67
2021/10/08 02:01:14;;;;;;;1.20;1.00;;;8.40;98.00;;;;;;5054064;28;20483;-67
2021/10/08 02:03:43;;;;;;;2.90;1.20;;;8.50;98.00;;;;;;5052677;28;20496;-67
2021/10/08 02:06:10;;;;;;;1.73;1.10;;;8.50;98.00;;;;;;5054017;28;20802;-68
2021/10/08 02:08:37;;;;;;;1.20;1.10;;;8.60;98.00;;;;;;5052498;28;20496;-67
2021/10/08 02:11:07;;;;;;;1.20;1.00;;;8.70;98.00;;;;;;5053786;28;20869;-67
2021/10/08 02:13:36;;;;;;;1.20;1.10;;;8.60;98.00;;;;;;5052575;28;20540;-68
2021/10/08 02:16:03;;;;;;;1.20;1.10;;;8.60;98.00;;;;;;5052278;28;20455;-67
2021/10/08 02:18:30;;;;;;;1.20;1.00;;;8.70;98.00;;;;;;5053456;28;20499;-68
2021/10/08 02:20:57;;;;;;;1.20;1.10;;;8.80;98.00;;;;;;5053511;28;20530;-67
2021/10/08 02:23:24;;;;;;;1.40;1.03;;;8.80;98.00;;;;;;5053337;28;20487;-68
2021/10/08 02:25:51;;;;;;;1.87;1.40;;;8.90;98.00;;;;;;5053152;28;20558;-67
2021/10/08 02:28:18;;;;;;;1.30;1.10;;;9.00;98.00;;;;;;5053326;28;20456;-67
2021/10/08 02:30:47;;;;;;;1.50;1.37;;;9.00;98.00;;;;;;5053149;28;20463;-68
2021/10/08 02:33:14;;;;;;;2.50;1.50;;;9.00;98.00;;;;;;5053210;28;20515;-67
2021/10/08 02:35:41;;;;;;;1.20;1.00;;;9.10;98.00;;;;;;5052078;28;20457;-68
2021/10/08 02:38:08;;;;;;;1.20;1.10;;;9.30;98.00;;;;;;5052510;28;20457;-67
2021/10/08 02:40:35;;;;;;;1.30;1.00;;;9.20;98.00;;;;;;5052368;28;20926;-67
2021/10/08 02:43:02;;;;;;;2.23;1.60;;;9.30;98.00;;;;;;5052579;28;20551;-67
2021/10/08 02:45:30;;;;;;;1.20;1.20;;;9.40;98.00;;;;;;5052679;28;20520;-67
2021/10/08 02:47:58;;;;;;;2.40;1.20;;;9.50;98.00;;;;;;5053201;28;20967;-67
2021/10/08 02:50:26;;;;;;;1.20;1.10;;;9.50;98.00;;;;;;5053084;28;20501;-67
2021/10/08 02:52:53;;;;;;;2.27;2.10;;;9.50;98.00;;;;;;5053083;28;20890;-68
2021/10/08 02:55:21;;;;;;;1.20;1.10;;;9.60;98.00;;;;;;5053026;28;20544;-68
2021/10/08 02:57:48;;;;;;;1.30;1.03;;;9.70;98.00;;;;;;5052968;28;20493;-68
2021/10/08 03:00:16;;;;;;;3.30;2.20;;;9.70;98.00;;;;;;5052634;28;20520;-68
2021/10/08 03:02:43;;;;;;;1.40;1.07;;;9.70;98.00;;;;;;5052919;28;20461;-67
2021/10/08 03:05:12;;;;;;;1.50;1.20;;;9.70;98.00;;;;;;5052881;28;20497;-68
2021/10/08 03:07:39;;;;;;;1.20;1.10;;;9.70;98.00;;;;;;5052705;28;20463;-67
2021/10/08 03:10:08;;;;;;;1.20;1.10;;;9.70;98.00;;;;;;5051815;28;20453;-67
2021/10/08 03:12:35;;;;;;;1.20;1.00;;;9.70;98.00;;;;;;5052816;28;20490;-67
2021/10/08 03:15:02;;;;;;;2.37;1.10;;;9.70;98.00;;;;;;5052709;28;20497;-67
2021/10/08 03:17:30;;;;;;;1.30;1.20;;;9.70;98.00;;;;;;5052728;28;20485;-68
2021/10/08 03:19:58;;;;;;;1.77;1.43;;;9.80;98.00;;;;;;5034887;28;20493;-67
2021/10/08 03:22:26;;;;;;;1.40;1.20;;;9.70;98.00;;;;;;5052729;28;20513;-68
2021/10/08 03:24:53;;;;;;;1.20;1.00;;;9.60;98.00;;;;;;5051134;28;20555;-67
2021/10/08 03:27:20;;;;;;;1.20;1.07;;;9.60;98.00;;;;;;5052596;28;20466;-67
2021/10/08 03:29:47;;;;;;;1.97;1.50;;;9.40;98.00;;;;;;5052028;28;20545;-68
2021/10/08 03:32:14;;;;;;;3.20;1.30;;;9.50;98.00;;;;;;5052081;28;20461;-67
2021/10/08 03:34:42;;;;;;;1.27;1.23;;;9.40;98.00;;;;;;5052357;28;20464;-67
2021/10/08 03:37:12;;;;;;;1.53;1.20;;;9.40;98.00;;;;;;5051991;28;20494;-67
2021/10/08 03:39:43;;;;;;;1.50;1.00;;;9.60;98.00;;;;;;5051899;28;20979;-68
2021/10/08 03:42:13;;;;;;;2.07;1.27;;;9.70;98.00;;;;;;5051989;28;20485;-67
2021/10/08 03:44:40;;;;;;;1.30;1.10;;;9.60;98.00;;;;;;5052140;28;20454;-67
2021/10/08 03:47:14;;;;;;;1.40;1.10;;;9.50;98.00;;;;;;5051959;28;20514;-67
2021/10/08 03:49:41;;;;;;;2.37;1.50;;;9.30;98.00;;;;;;5051823;28;20939;-67
2021/10/08 03:52:08;;;;;;;1.20;1.00;;;9.20;98.00;;;;;;5051971;28;20453;-67
2021/10/08 03:54:36;;;;;;;1.30;1.00;;;9.20;98.00;;;;;;5051934;28;20526;-67
2021/10/08 03:57:04;;;;;;;1.20;1.10;;;9.00;98.00;;;;;;5051682;28;20458;-68
2021/10/08 03:59:31;;;;;;;1.90;1.10;;;9.00;98.00;;;;;;5051698;28;20547;-67
2021/10/08 04:01:58;;;;;;;1.67;1.10;;;9.00;98.00;;;;;;5051639;28;20524;-68
2021/10/08 04:04:25;;;;;;;1.20;1.00;;;9.00;98.00;;;;;;5050519;28;20496;-68
2021/10/08 04:06:52;;;;;;;2.53;1.10;;;8.90;98.00;;;;;;5051102;28;20526;-68
2021/10/08 04:09:23;;;;;;;1.30;1.20;;;8.80;98.00;;;;;;5050711;28;21019;-68
2021/10/08 04:11:50;;;;;;;1.30;1.20;;;8.90;98.00;;;;;;5051586;28;20532;-68
2021/10/08 04:14:19;;;;;;;1.63;1.20;;;8.70;98.00;;;;;;5051652;28;20931;-68
2021/10/08 04:16:46;;;;;;;2.20;1.37;;;8.80;98.00;;;;;;5051796;28;21090;-67
2021/10/08 04:19:13;;;;;;;3.23;1.67;;;8.90;98.00;;;;;;5051587;28;20861;-67
2021/10/08 04:21:40;;;;;;;1.20;1.10;;;8.80;98.00;;;;;;5053222;28;20492;-67
2021/10/08 04:24:07;;;;;;;1.60;1.33;;;8.80;98.00;;;;;;5058317;28;20515;-67
2021/10/08 04:26:34;;;;;;;2.60;1.30;;;8.70;98.00;;;;;;5058037;28;20993;-67
2021/10/08 04:29:01;;;;;;;1.70;1.30;;;8.80;98.00;;;;;;5058398;28;20449;-67
2021/10/08 04:31:30;;;;;;;1.53;1.20;;;8.90;98.00;;;;;;5058049;28;20456;-68
2021/10/08 04:33:57;;;;;;;1.57;1.10;;;9.10;98.00;;;;;;5058198;28;20965;-68
2021/10/08 04:36:24;;;;;;;1.20;1.10;;;9.10;98.00;;;;;;5056984;28;20459;-68
2021/10/08 04:38:51;;;;;;;1.20;1.10;;;9.20;98.00;;;;;;5056598;28;20955;-67
2021/10/08 04:41:19;;;;;;;1.20;1.17;;;9.30;98.00;;;;;;5057056;28;20517;-68
2021/10/08 04:43:46;;;;;;;2.17;1.30;;;9.20;98.00;;;;;;5058292;28;20808;-68
2021/10/08 04:46:13;;;;;;;1.20;1.03;;;9.00;98.00;;;;;;5057987;28;20488;-67
2021/10/08 04:48:42;;;;;;;2.13;1.40;;;9.00;98.00;;;;;;5058074;28;20489;-67
2021/10/08 04:51:08;;;;;;;1.20;1.00;;;9.00;98.00;;;;;;5057746;28;20938;-68
2021/10/08 04:53:36;;;;;;;1.97;1.33;;;9.10;98.00;;;;;;5057906;28;20460;-67
2021/10/08 04:56:03;;;;;;;1.43;1.10;;;9.10;98.00;;;;;;5056788;28;20515;-67
2021/10/08 04:58:30;;;;;;;1.40;1.00;;;9.20;98.00;;;;;;5057767;28;20521;-67
2021/10/08 05:00:56;;;;;;;1.20;1.10;;;9.20;98.00;;;;;;5057521;28;20550;-68
2021/10/08 05:03:24;;;;;;;1.30;1.20;;;9.10;98.00;;;;;;5057899;28;20491;-68
2021/10/08 05:05:53;;;;;;;1.40;1.10;;;8.90;98.00;;;;;;5057806;28;20465;-67
2021/10/08 05:08:21;;;;;;;1.20;1.10;;;8.90;98.00;;;;;;5057674;28;20449;-67
2021/10/08 05:10:50;;;;;;;1.40;1.10;;;8.80;98.00;;;;;;5057594;28;20514;-67
2021/10/08 05:13:18;;;;;;;1.20;1.00;;;8.80;98.00;;;;;;5057879;28;20545;-67
2021/10/08 05:15:45;;;;;;;1.20;1.00;;;8.70;98.00;;;;;;5057765;28;20819;-67
2021/10/08 05:18:12;;;;;;;1.20;1.10;;;8.70;98.00;;;;;;5057664;28;20458;-67
2021/10/08 05:20:39;;;;;;;1.20;1.00;;;8.70;98.00;;;;;;5057587;28;20520;-68
2021/10/08 05:23:07;;;;;;;1.20;1.00;;;8.70;98.00;;;;;;5057980;28;20892;-67
2021/10/08 05:25:34;;;;;;;1.23;1.07;;;8.70;98.00;;;;;;5057406;28;20482;-67
2021/10/08 05:28:01;;;;;;;1.60;1.20;;;8.70;98.00;;;;;;5057654;28;20998;-68
2021/10/08 05:30:29;;;;;;;1.20;1.10;;;8.70;98.00;;;;;;5056437;28;20493;-67
2021/10/08 05:32:56;;;;;;;1.20;1.00;;;8.80;98.00;;;;;;5055465;28;20480;-68
2021/10/08 05:35:24;;;;;;;1.30;1.20;;;8.80;98.00;;;;;;5052870;28;20449;-67
2021/10/08 05:37:51;;;;;;;1.20;1.00;;;8.80;98.00;;;;;;5054448;28;20511;-67
2021/10/08 05:40:19;;;;;;;1.40;1.13;;;8.80;98.00;;;;;;5053141;28;20500;-67
2021/10/08 05:42:46;;;;;;;1.37;1.00;;;8.80;98.00;;;;;;5054348;28;20489;-68
2021/10/08 05:45:13;;;;;;;1.20;1.17;;;8.70;98.00;;;;;;5054180;28;21016;-67
2021/10/08 05:47:40;;;;;;;1.20;1.10;;;8.70;98.00;;;;;;5054202;28;20524;-67
2021/10/08 05:50:08;;;;;;;1.37;1.30;;;8.90;98.00;;;;;;5054269;28;20494;-67
2021/10/08 05:52:35;;;;;;;2.23;1.30;;;8.80;98.00;;;;;;5054355;28;20911;-67
2021/10/08 05:55:02;;;;;;;1.40;1.20;;;8.70;98.00;;;;;;5054273;28;20545;-68
2021/10/08 05:57:30;;;;;;;1.20;1.00;;;8.60;98.00;;;;;;5054225;28;20883;-68
2021/10/08 05:59:57;;;;;;;1.20;1.00;;;8.50;98.00;;;;;;5053853;28;20463;-67
2021/10/08 06:02:25;;;;;;;1.67;1.20;;;8.70;98.00;;;;;;5054049;28;20487;-68
2021/10/08 06:04:52;;;;;;;1.20;1.00;;;8.70;98.00;;;;;;5053157;28;20543;-68
2021/10/08 06:07:19;;;;;;;1.20;1.00;;;8.60;98.00;;;;;;5054164;28;20984;-68
2021/10/08 06:09:46;;;;;;;1.20;1.00;;;8.40;98.00;;;;;;5053863;28;20928;-68
2021/10/08 06:12:14;;;;;;;2.03;1.20;;;8.40;98.00;;;;;;5053810;28;20455;-67
2021/10/08 06:14:42;;;;;;;1.20;1.00;;;8.40;98.00;;;;;;5053537;28;20482;-67
2021/10/08 06:17:09;;;;;;;1.20;1.00;;;8.40;98.00;;;;;;5053700;28;20852;-68
2021/10/08 06:19:36;;;;;;;1.77;1.10;;;8.40;98.00;;;;;;5053801;28;20968;-69
2021/10/08 06:22:04;;;;;;;1.20;1.10;;;8.30;98.00;;;;;;5053497;28;20548;-68
2021/10/08 06:24:31;;;;;;;1.20;1.00;;;8.40;98.00;;;;;;5053335;28;20941;-67
2021/10/08 06:26:58;;;;;;;1.30;1.10;;;8.50;98.00;;;;;;5053512;28;20474;-67
2021/10/08 06:29:25;;;;;;;1.20;1.00;;;8.50;98.00;;;;;;5053348;28;20495;-67
2021/10/08 06:31:54;;;;;;;1.20;1.10;;;8.70;98.00;;;;;;5052011;28;20520;-66
2021/10/08 06:34:22;;;;;;;1.20;1.10;;;8.80;98.00;;;;;;5053357;28;20491;-67
2021/10/08 06:36:49;;;;;;;1.20;1.00;;;8.70;98.00;;;;;;5053179;28;20568;-67
2021/10/08 06:39:16;;;;;;;1.47;1.30;;;8.80;98.00;;;;;;5053037;28;20462;-68
2021/10/08 06:41:43;;;;;;;1.20;1.03;;;8.70;98.00;;;;;;5053038;28;20888;-68
2021/10/08 06:44:10;;;;;;;1.20;1.10;;;8.80;98.00;;;;;;5053095;28;20878;-68
2021/10/08 06:46:37;;;;;;;1.80;1.50;;;8.80;98.00;;;;;;5051847;28;20462;-68
2021/10/08 06:49:06;;;;;;;1.20;1.00;;;8.60;98.00;;;;;;5035237;28;20482;-68
2021/10/08 06:51:32;;;;;;;1.20;1.10;;;8.60;98.00;;;;;;5052890;28;20454;-68
2021/10/08 06:53:59;;;;;;;1.20;1.10;;;8.70;98.00;;;;;;5053055;28;20487;-68
2021/10/08 06:56:29;;;;;;;1.70;1.27;;;8.70;98.00;;;;;;5052817;28;20802;-67
2021/10/08 06:58:56;;;;;;;1.40;1.10;;;8.70;98.00;;;;;;5051752;28;20942;-68
2021/10/08 07:01:30;;;;;;;1.20;1.00;;;8.70;98.00;;;;;;5052840;28;20469;-68
2021/10/08 07:03:58;;;;;;;1.50;1.30;;;8.60;98.00;;;;;;5052698;28;20560;-67
2021/10/08 07:06:29;;;;;;;1.20;1.00;;;8.80;98.00;;;;;;5052813;28;20786;-67
2021/10/08 07:08:56;;;;;;;1.93;1.17;;;8.80;98.00;;;;;;5050025;28;20458;-67
2021/10/08 07:11:24;;;;;;;1.67;1.30;;;8.90;98.00;;;;;;5051875;28;20480;-67
2021/10/08 07:13:52;;;;;;;2.53;1.70;;;8.90;98.00;;;;;;5052193;28;20470;-68
2021/10/08 07:16:19;;;;;;;2.30;1.10;;;9.00;98.00;;;;;;5059509;28;20453;-68
2021/10/08 07:18:53;;;;;;;1.40;1.10;;;9.20;98.00;;;;;;5060683;28;20518;-67
2021/10/08 07:21:21;;;;;;;1.30;1.10;;;9.30;98.00;;;;;;5051880;28;20512;-68
2021/10/08 07:23:49;;;;;;;1.30;1.17;;;9.50;98.00;;;;;;5059984;28;20450;-68
2021/10/08 07:26:18;;;;;;;1.33;1.07;;;9.50;98.00;;;;;;5042611;28;20526;-68
2021/10/08 07:28:45;;;;;;;1.67;1.50;;;9.60;98.00;;;;;;5050844;28;20489;-68
2021/10/08 07:31:12;;;;;;;1.20;1.13;;;9.60;98.00;;;;;;5051363;28;20505;-68
2021/10/08 07:33:40;;;;;;;1.20;1.00;;;9.60;98.00;;;;;;5051163;28;20545;-68
2021/10/08 07:36:08;;;;;;;1.30;1.20;;;9.50;98.00;;;;;;5051047;28;20897;-69
2021/10/08 07:38:35;;;;;;;2.67;1.50;;;9.60;98.00;;;;;;5060191;28;20489;-68
2021/10/08 07:41:03;;;;;;;1.20;1.20;;;9.80;98.00;;;;;;5067601;28;20484;-68
2021/10/08 07:43:30;;;;;;;1.30;1.30;;;9.90;98.00;;;;;;5058969;28;20529;-68
2021/10/08 07:45:57;;;;;;;1.83;1.20;;;10.00;98.00;;;;;;5067776;28;20951;-68
2021/10/08 07:48:24;;;;;;;1.20;1.10;;;10.00;98.00;;;;;;5059231;28;20745;-68
2021/10/08 07:50:51;;;;;;;1.20;1.10;;;10.10;98.00;;;;;;5059139;28;20488;-67
2021/10/08 07:53:18;;;;;;;1.83;1.33;;;10.30;98.00;;;;;;5058827;28;20460;-68
2021/10/08 07:55:45;;;;;;;1.30;1.20;;;10.30;98.00;;;;;;5041740;28;20564;-68
2021/10/08 07:58:14;;;;;;;1.60;1.40;;;10.60;98.00;;;;;;5057970;28;20495;-67
2021/10/08 08:00:44;;;;;;;3.27;1.97;;;10.80;98.00;;;;;;5058938;28;20487;-68
2021/10/08 08:03:11;;;;;;;1.20;1.00;;;10.90;98.00;;;;;;5058925;28;21014;-68
2021/10/08 08:05:38;;;;;;;1.80;1.50;;;11.00;98.00;;;;;;5058973;28;20556;-68
2021/10/08 08:08:05;;;;;;;2.13;1.90;;;11.20;98.00;;;;;;5049130;28;20896;-68
2021/10/08 08:10:32;;;;;;;1.20;1.20;;;11.30;98.00;;;;;;5059161;28;20491;-67
2021/10/08 08:12:59;;;;;;;1.37;1.27;;;11.30;98.00;;;;;;5057576;28;20455;-68
2021/10/08 08:15:27;;;;;;;1.77;1.63;;;11.30;98.00;;;;;;5057987;28;20486;-68
2021/10/08 08:17:54;;;;;;;2.27;1.30;;;11.40;98.00;;;;;;5058907;28;20453;-68
2021/10/08 08:20:22;;;;;;;1.87;1.20;;;11.50;98.00;;;;;;5065671;28;20507;-68
2021/10/08 08:22:50;;;;;;;1.20;1.20;;;11.70;98.00;;;;;;5067364;28;20572;-66
2021/10/08 08:25:22;;;;;;;2.10;1.83;;;11.80;98.00;;;;;;5071444;28;20518;-67
2021/10/08 08:27:49;;;;;;;1.40;1.37;;;12.00;98.00;;;;;;5053649;28;20480;-67
2021/10/08 08:30:16;;;;;;;2.90;1.87;;;12.00;98.00;;;;;;5071115;28;20955;-68
2021/10/08 08:32:46;;;;;;;1.63;1.30;;;12.10;98.00;;;;;;5071079;28;20465;-67
2021/10/08 08:35:13;;;;;;;1.40;1.27;;;12.20;98.00;;;;;;5036470;28;20490;-68
2021/10/08 08:37:40;;;;;;;2.40;1.50;;;12.20;98.00;;;;;;5070823;28;20457;-69
2021/10/08 08:40:08;;;;;;;1.57;1.53;;;12.30;98.00;;;;;;5070801;28;20504;-67
2021/10/08 08:42:36;;;;;;;1.67;1.40;;;12.50;98.00;;;;;;5071455;28;20484;-67
2021/10/08 08:45:04;;;;;;;1.70;1.20;;;13.00;98.00;;;;;;5071413;28;20455;-68
2021/10/08 08:47:31;;;;;;;3.20;1.73;;;13.80;98.00;;;;;;5071537;28;20485;-67
2021/10/08 08:50:00;;;;;;;5.13;2.50;;;14.10;98.00;;;;;;5054012;28;20495;-68
2021/10/08 08:52:29;;;;;;;2.70;1.80;;;14.20;98.00;;;;;;5071669;28;20511;-67
2021/10/08 08:54:56;;;;;;;2.13;1.80;;;14.20;98.00;;;;;;5053626;28;20547;-68
2021/10/08 08:57:24;;;;;;;3.73;2.17;;;14.10;98.00;;;;;;5071299;28;20450;-67
2021/10/08 09:00:02;;;;;;;1.50;1.47;;;14.10;98.00;;;;;;5071249;28;20450;-68
2021/10/08 09:02:30;;;;;;;1.87;1.83;;;14.00;98.00;;;;;;5071055;28;20849;-68
2021/10/08 09:04:58;;;;;;;1.50;1.30;;;13.90;98.00;;;;;;5071260;28;20481;-67
2021/10/08 09:07:32;;;;;;;4.13;2.17;;;13.80;98.00;;;;;;5070926;28;20458;-68
2021/10/08 09:10:14;;;;;;;1.87;1.53;;;13.70;98.00;;;;;;5074045;28;20455;-67
2021/10/08 09:12:42;;;;;;;2.80;1.40;;;13.70;98.00;;;;;;5074885;28;20484;-67
2021/10/08 09:15:10;;;;;;;2.37;2.07;;;13.70;98.00;;;;;;5074760;28;20452;-67
2021/10/08 09:17:37;;;;;;;1.60;1.37;;;13.50;98.00;;;;;;5056970;28;20506;-68
2021/10/08 09:20:07;;;;;;;1.93;1.67;;;13.50;98.00;;;;;;5074793;28;20468;-67
2021/10/08 09:22:50;;;;;;;1.50;1.47;;;13.50;98.00;;;;;;5074219;28;20531;-67
2021/10/08 09:25:20;;;;;;;1.57;1.30;;;13.50;98.00;;;;;;5074426;28;20941;-68
2021/10/08 09:27:51;;;;;;;1.50;1.40;;;13.60;98.00;;;;;;5074496;28;20480;-68
2021/10/08 09:30:27;;;;;;;1.57;1.47;;;13.60;98.00;;;;;;5074541;28;20543;-68
2021/10/08 09:32:56;;;;;;;2.20;2.00;;;13.80;98.00;;;;;;5074517;28;20459;-67
2021/10/08 09:35:25;;;;;;;1.70;1.50;;;13.80;98.00;;;;;;5056635;28;20497;-67
2021/10/08 09:38:00;;;;;;;1.80;1.70;;;13.80;98.00;;;;;;5074542;28;20457;-67
2021/10/08 09:40:33;;;;;;;3.13;1.30;;;13.80;98.00;;;;;;5074461;28;20489;-68
2021/10/08 09:43:03;;;;;;;2.00;1.70;;;13.90;98.00;;;;;;5074491;28;20557;-68
2021/10/08 09:45:47;;;;;;;1.40;1.37;;;13.90;98.00;;;;;;5074245;28;20492;-68
2021/10/08 09:48:14;;;;;;;3.03;1.73;;;13.90;98.00;;;;;;5074278;28;20850;-67
2021/10/08 09:50:59;;;;;;;1.50;1.50;;;14.10;98.00;;;;;;5074103;28;20456;-68
2021/10/08 09:53:28;;;;;;;1.93;1.50;;;14.00;98.00;;;;;;5074299;28;20489;-68
2021/10/08 09:55:55;;;;;;;1.50;1.50;;;14.00;98.00;;;;;;5056171;28;20459;-67
2021/10/08 09:58:23;;;;;;;2.50;1.90;;;14.20;98.00;;;;;;5074007;28;20497;-67
2021/10/08 10:00:57;;;;;;;2.60;1.80;;;14.30;98.00;;;;;;5074086;28;20505;-67
2021/10/08 10:03:25;;;;;;;1.50;1.30;;;14.30;98.00;;;;;;5074062;28;20491;-68
2021/10/08 10:05:52;;;;;;;1.60;1.30;;;14.20;98.00;;;;;;5073948;28;20457;-68
2021/10/08 10:08:20;;;;;;;1.70;1.40;;;14.20;98.00;;;;;;5074035;28;20858;-68
2021/10/08 10:10:50;;;;;;;2.37;2.03;;;14.20;98.00;;;;;;5074206;28;20489;-68
2021/10/08 10:13:18;;;;;;;1.70;1.70;;;14.20;98.00;;;;;;5073682;28;20542;-67
2021/10/08 10:15:48;;;;;;;1.60;1.40;;;14.20;98.00;;;;;;5056299;28;20459;-68
2021/10/08 10:18:17;;;;;;;3.20;2.10;;;14.10;98.00;;;;;;5073664;28;20452;-67
2021/10/08 10:20:47;;;;;;;1.50;1.40;;;14.10;98.00;;;;;;5073136;28;20467;-67
2021/10/08 10:23:16;;;;;;;2.03;1.67;;;14.20;98.00;;;;;;5073676;28;20531;-68
2021/10/08 10:25:44;;;;;;;2.23;2.00;;;14.10;98.00;;;;;;5073556;28;20489;-70
2021/10/08 10:28:13;;;;;;;1.60;1.50;;;14.30;98.00;;;;;;5073444;28;20893;-67
2021/10/08 10:30:42;;;;;;;1.60;1.50;;;14.40;98.00;;;;;;5073314;28;20518;-67
2021/10/08 10:33:10;;;;;;;2.43;2.07;;;14.40;98.00;;;;;;5073333;28;20477;-68
2021/10/08 10:35:46;;;;;;;2.40;1.80;;;14.40;98.00;;;;;;5073180;28;20532;-67
2021/10/08 10:38:37;;;;;;;2.43;1.77;;;14.50;98.00;;;;;;5055050;28;20453;-67
2021/10/08 10:41:28;;;;;;;1.80;1.27;;;14.60;98.00;;;;;;5073104;28;20516;-67
2021/10/08 10:44:14;;;;;;;2.20;1.70;;;14.70;98.00;;;;;;5072817;28;21029;-68
2021/10/08 10:46:46;;;;;;;2.33;1.80;;;14.80;98.00;;;;;;5073311;28;20456;-67
2021/10/08 10:49:52;;;;;;;1.70;1.47;;;14.90;98.00;;;;;;5073099;28;20454;-66
2021/10/08 10:52:29;;;;;;;3.10;1.60;;;14.90;98.00;;;;;;5072894;28;20944;-67
2021/10/08 10:55:13;;;;;;;1.73;1.67;;;14.90;98.00;;;;;;5072973;28;20867;-67
2021/10/08 10:57:52;;;;;;;2.13;1.57;;;15.00;98.00;;;;;;5072602;28;20461;-67
2021/10/08 11:00:38;;;;;;;3.40;2.00;;;15.10;98.00;;;;;;5072928;28;20453;-67
2021/10/08 11:03:14;;;;;;;1.53;1.30;;;15.10;98.00;;;;;;5072834;28;20547;-66
2021/10/08 11:05:58;;;;;;;1.80;1.47;;;15.00;98.00;;;;;;5072577;28;20465;-67
2021/10/08 11:08:25;;;;;;;1.70;1.63;;;15.00;98.00;;;;;;5072160;28;20462;-67
2021/10/08 11:11:18;;;;;;;2.00;1.50;;;15.00;98.00;;;;;;5072602;28;20549;-67
2021/10/08 11:13:48;;;;;;;2.60;2.03;;;15.10;98.00;;;;;;5072628;28;20466;-68
2021/10/08 11:16:30;;;;;;;1.53;1.53;;;15.10;98.00;;;;;;5072482;28;20470;-67
2021/10/08 11:18:59;;;;;;;2.20;1.90;;;15.10;98.00;;;;;;5072499;28;20464;-67
2021/10/08 11:21:49;;;;;;;2.00;1.90;;;15.20;98.00;;;;;;5072467;28;20950;-67
2021/10/08 11:24:19;;;;;;;2.80;1.50;;;15.20;98.00;;;;;;5072362;28;20896;-67
2021/10/08 11:26:54;;;;;;;1.57;1.53;;;15.20;98.00;;;;;;5072407;28;20465;-69
2021/10/08 11:29:22;;;;;;;1.73;1.47;;;15.20;98.00;;;;;;5057562;28;20466;-66
2021/10/08 11:32:11;;;;;;;1.30;1.30;;;15.30;98.00;;;;;;5042876;28;20475;-68
2021/10/08 11:34:52;;;;;;;1.70;1.67;;;15.30;98.00;;;;;;5042094;28;20840;-67
2021/10/08 11:37:19;;;;;;;1.40;1.30;;;15.30;98.00;;;;;;5050753;28;20460;-67
2021/10/08 11:39:48;;;;;;;1.63;1.57;;;15.40;98.00;;;;;;5068363;28;20855;-69
2021/10/08 11:42:17;;;;;;;2.07;1.33;;;15.60;98.00;;;;;;5059435;28;20489;-70
2021/10/08 11:44:57;;;;;;;1.63;1.50;;;15.70;98.00;;;;;;5058825;28;20522;-69
2021/10/08 11:47:29;;;;;;;1.90;1.63;;;15.80;98.00;;;;;;5059362;28;20488;-69
2021/10/08 11:52:56;;;;;;;1.70;1.40;;;15.90;98.00;;;;;;5031567;28;20499;-68
2021/10/08 11:55:25;;;;;;;1.73;1.50;;;15.80;98.00;;;;;;5062385;28;20460;-69
2021/10/08 11:57:55;;;;;;;1.97;1.70;;;15.90;98.00;;;;;;5056157;28;20481;-69
2021/10/08 12:00:26;;;;;;;1.90;1.60;;;15.90;98.00;;;;;;5062140;28;20464;-68
2021/10/08 12:02:59;;;;;;;2.83;1.87;;;16.00;98.00;;;;;;5051028;28;20455;-69
2021/10/08 12:05:26;;;;;;;1.93;1.67;;;16.00;98.00;;;;;;5059695;28;20455;-69
2021/10/08 12:08:02;;;;;;;1.90;1.27;;;16.00;98.00;;;;;;5065469;28;20455;-69
2021/10/08 12:10:29;;;;;;;1.90;1.80;;;16.00;98.00;;;;;;5060886;28;20487;-68
2021/10/08 12:12:58;;;;;;;2.00;1.90;;;16.00;98.00;;;;;;5066606;28;20462;-68
2021/10/08 12:15:27;;;;;;;2.30;2.10;;;16.00;98.00;;;;;;5052005;28;20468;-69
2021/10/08 12:17:57;;;;;;;2.37;1.80;;;16.20;98.00;;;;;;5050801;28;20543;-69
2021/10/08 12:20:28;;;;;;;2.07;1.40;;;16.10;98.00;;;;;;5068067;28;20499;-67
2021/10/08 12:23:15;;;;;;;1.60;1.53;;;16.00;98.00;;;;;;5059398;28;20528;-67
2021/10/08 12:25:42;;;;;;;1.67;1.60;;;16.00;98.00;;;;;;5042053;28;20954;-69
2021/10/08 12:28:10;;;;;;;2.33;1.83;;;16.10;98.00;;;;;;5067053;28;20512;-69
2021/10/08 12:30:50;;;;;;;1.83;1.70;;;16.10;98.00;;;;;;5059508;28;20517;-69
2021/10/08 12:33:26;;;;;;;3.40;2.00;;;16.00;98.00;;;;;;5052594;28;20463;-68
2021/10/08 12:36:19;;;;;;;2.47;1.70;;;16.00;98.00;;;;;;5050511;28;20490;-69
2021/10/08 12:38:58;;;;;;;1.73;1.67;;;16.10;98.00;;;;;;5059402;28;21132;-69
2021/10/08 12:41:33;;;;;;;1.40;1.20;;;16.10;98.00;;;;;;5059560;28;20461;-69
2021/10/08 12:44:07;;;;;;;2.90;1.70;;;16.10;98.00;;;;;;5052556;28;20582;-69
2021/10/08 12:46:36;;;;;;;1.90;1.83;;;16.20;98.00;;;;;;5062421;28;20486;-69
2021/10/08 12:49:07;;;;;;;1.90;1.60;;;16.10;98.00;;;;;;5062678;28;20462;-69
2021/10/08 12:51:49;;;;;;;1.57;1.50;;;16.00;98.00;;;;;;5069273;28;20470;-69
2021/10/08 12:54:18;;;;;;;1.67;1.67;;;15.90;98.00;;;;;;5056019;28;21207;-69
2021/10/08 12:56:46;;;;;;;1.87;1.80;;;15.80;98.00;;;;;;5062880;28;20959;-69
2021/10/08 12:59:14;;;;;;;1.20;1.20;;;15.80;98.00;;;;;;5056086;28;20461;-68
2021/10/08 13:01:55;;;;;;;2.13;1.43;;;15.80;98.00;;;;;;5060979;28;20455;-68
2021/10/08 13:04:24;;;;;;;2.33;2.00;;;15.90;98.00;;;;;;5054617;28;20981;-68
2021/10/08 13:07:14;;;;;;;1.80;1.63;;;16.10;98.00;;;;;;5057380;28;20954;-69